Time;durP1;ratioP1;P1;durP2;ratioP2;P2;SDS_P1;SDS_P2;PMS_P1;PMS_P2;Temp;Humidity;BMP_temperature;BMP_pressure;BME280_temperature;BME280_humidity;BME280_pressure;Samples;Min_cycle;Max_cycle;Signal;HPM_P1;HPM_P2
2021/09/09 00:02:04;;;;;;;37.40;22.65;;;12.80;99.90;;;;;;5031728;28;20026;-77
2021/09/09 00:04:30;;;;;;;32.88;22.58;;;12.80;99.90;;;;;;5032655;28;20026;-77
2021/09/09 00:06:55;;;;;;;36.72;22.35;;;12.70;99.90;;;;;;5032767;28;20033;-77
2021/09/09 00:09:21;;;;;;;36.97;23.67;;;12.70;99.90;;;;;;5031364;28;20037;-77
2021/09/09 00:11:47;;;;;;;34.63;23.83;;;12.80;99.90;;;;;;5032813;28;20033;-77
2021/09/09 00:14:13;;;;;;;35.90;23.75;;;12.70;99.90;;;;;;5032570;28;20029;-77
2021/09/09 00:16:39;;;;;;;34.58;23.98;;;12.60;99.90;;;;;;5032720;28;20429;-77
2021/09/09 00:19:04;;;;;;;30.25;20.83;;;12.60;99.90;;;;;;5032585;28;20029;-77
2021/09/09 00:21:31;;;;;;;34.35;22.95;;;12.50;99.90;;;;;;5032288;28;20037;-77
2021/09/09 00:23:56;;;;;;;39.45;25.23;;;12.50;99.90;;;;;;5030767;28;20025;-77
2021/09/09 00:26:22;;;;;;;42.17;25.95;;;12.50;99.90;;;;;;5032517;28;20101;-77
2021/09/09 00:28:48;;;;;;;35.90;24.20;;;12.50;99.90;;;;;;5032549;28;20052;-77
2021/09/09 00:31:13;;;;;;;38.78;25.95;;;12.50;99.90;;;;;;5032212;28;20033;-77
2021/09/09 00:33:39;;;;;;;39.63;24.63;;;12.50;99.90;;;;;;5014613;28;20021;-77
2021/09/09 00:36:04;;;;;;;36.63;25.10;;;12.50;99.90;;;;;;5032260;28;20029;-77
2021/09/09 00:38:30;;;;;;;35.28;23.60;;;12.50;99.90;;;;;;5031031;28;20026;-76
2021/09/09 00:40:56;;;;;;;41.28;22.83;;;12.50;99.90;;;;;;5032048;28;20056;-77
2021/09/09 00:43:22;;;;;;;37.15;25.17;;;12.40;99.90;;;;;;5032310;28;20143;-77
2021/09/09 00:45:51;;;;;;;36.58;22.77;;;12.40;99.90;;;;;;5031994;28;20097;-77
2021/09/09 00:48:17;;;;;;;41.88;27.67;;;12.30;99.90;;;;;;5032147;28;20025;-77
2021/09/09 00:50:42;;;;;;;39.38;26.67;;;12.30;99.90;;;;;;5014175;28;20036;-77
2021/09/09 00:53:08;;;;;;;45.30;26.30;;;12.30;99.90;;;;;;5032083;28;20096;-77
2021/09/09 00:55:33;;;;;;;46.83;27.13;;;12.30;99.90;;;;;;5030472;28;20029;-77
2021/09/09 00:57:59;;;;;;;40.47;26.52;;;12.30;99.90;;;;;;5032006;28;20057;-77
2021/09/09 01:00:25;;;;;;;44.00;26.25;;;12.30;99.90;;;;;;5031924;28;20041;-77
2021/09/09 01:02:50;;;;;;;42.13;27.67;;;12.20;99.90;;;;;;5030429;28;20079;-77
2021/09/09 01:05:16;;;;;;;42.65;28.20;;;12.20;99.90;;;;;;5031416;28;20030;-77
2021/09/09 01:07:42;;;;;;;44.95;28.27;;;12.20;99.90;;;;;;5030605;28;20036;-76
2021/09/09 01:10:08;;;;;;;43.35;27.60;;;12.10;99.90;;;;;;5031884;28;20029;-77
2021/09/09 01:12:34;;;;;;;43.67;28.75;;;12.10;99.90;;;;;;5030190;28;20076;-77
2021/09/09 01:14:59;;;;;;;45.30;31.10;;;12.10;99.90;;;;;;5030325;28;20041;-77
2021/09/09 01:17:25;;;;;;;43.95;30.70;;;12.10;99.90;;;;;;5031697;28;20111;-77
2021/09/09 01:19:50;;;;;;;48.88;28.88;;;12.00;99.90;;;;;;5031664;28;20026;-77
2021/09/09 01:22:16;;;;;;;42.00;28.20;;;12.00;99.90;;;;;;5031388;28;20040;-77
2021/09/09 01:24:41;;;;;;;40.28;27.00;;;12.00;99.90;;;;;;5031417;28;20053;-77
2021/09/09 01:27:08;;;;;;;42.65;25.85;;;11.90;99.90;;;;;;5031727;28;20101;-77
2021/09/09 01:29:36;;;;;;;42.58;26.70;;;11.90;99.90;;;;;;5031673;28;20428;-77
2021/09/09 01:32:04;;;;;;;39.75;27.48;;;11.80;99.90;;;;;;5029982;28;20091;-77
2021/09/09 01:34:30;;;;;;;45.28;29.58;;;11.80;99.90;;;;;;5030097;28;20029;-77
2021/09/09 01:36:56;;;;;;;40.97;28.63;;;11.80;99.90;;;;;;5031500;28;20021;-77
2021/09/09 01:39:23;;;;;;;45.60;30.65;;;11.80;99.90;;;;;;5030360;28;20052;-76
2021/09/09 01:41:53;;;;;;;41.67;27.48;;;11.80;99.90;;;;;;5031507;28;20033;-77
2021/09/09 01:44:19;;;;;;;43.13;28.70;;;11.80;99.90;;;;;;5031123;28;20050;-77
2021/09/09 01:46:45;;;;;;;47.17;29.95;;;11.80;99.90;;;;;;5031308;28;20083;-77
2021/09/09 01:49:11;;;;;;;44.03;28.75;;;11.80;99.90;;;;;;5031552;28;20032;-77
2021/09/09 01:51:37;;;;;;;46.30;28.15;;;11.80;99.90;;;;;;5031427;28;20397;-77
2021/09/09 01:54:03;;;;;;;47.40;28.27;;;11.80;99.90;;;;;;5029450;28;20036;-76
2021/09/09 01:56:29;;;;;;;40.75;27.33;;;11.70;99.90;;;;;;5031344;28;20057;-77
2021/09/09 01:58:55;;;;;;;37.53;27.95;;;11.70;99.90;;;;;;5031443;28;20061;-77
2021/09/09 02:01:21;;;;;;;48.10;30.92;;;11.60;99.90;;;;;;5031245;28;20064;-77
2021/09/09 02:03:47;;;;;;;44.83;30.60;;;11.60;99.90;;;;;;5029599;28;20021;-76
2021/09/09 02:06:13;;;;;;;46.25;31.20;;;11.70;99.90;;;;;;5031099;28;20038;-76
2021/09/09 02:08:38;;;;;;;41.08;30.10;;;11.60;99.90;;;;;;5031318;28;20030;-77
2021/09/09 02:11:04;;;;;;;39.85;26.65;;;11.60;99.90;;;;;;5030104;28;20025;-76
2021/09/09 02:13:30;;;;;;;42.80;27.70;;;11.60;99.90;;;;;;5031047;28;20072;-76
2021/09/09 02:15:55;;;;;;;44.13;27.88;;;11.60;99.90;;;;;;5030887;28;20025;-76
2021/09/09 02:18:21;;;;;;;42.38;27.67;;;11.70;99.90;;;;;;5031250;28;20034;-76
2021/09/09 02:20:46;;;;;;;43.92;29.02;;;11.50;99.90;;;;;;5031133;28;20100;-76
2021/09/09 02:23:12;;;;;;;42.65;29.42;;;11.50;99.90;;;;;;5031267;28;20024;-76
2021/09/09 02:25:38;;;;;;;44.70;27.88;;;11.50;99.90;;;;;;5030619;28;20029;-76
2021/09/09 02:28:04;;;;;;;43.90;27.73;;;11.50;99.90;;;;;;5029972;28;20474;-77
2021/09/09 02:30:30;;;;;;;41.60;27.15;;;11.50;99.90;;;;;;5031001;28;20444;-76
2021/09/09 02:32:56;;;;;;;41.92;27.67;;;11.50;99.90;;;;;;5033296;28;20018;-76
2021/09/09 02:35:21;;;;;;;45.10;29.33;;;11.40;99.90;;;;;;5034074;28;20026;-77
2021/09/09 02:37:47;;;;;;;46.60;30.27;;;11.50;99.90;;;;;;5034642;28;20052;-76
2021/09/09 02:40:14;;;;;;;51.85;32.50;;;11.50;99.90;;;;;;5033382;28;20389;-77
2021/09/09 02:42:40;;;;;;;56.28;31.98;;;11.60;99.90;;;;;;5034736;28;20035;-76
2021/09/09 02:45:07;;;;;;;54.63;34.00;;;11.70;99.90;;;;;;5032565;28;20025;-76
2021/09/09 02:47:32;;;;;;;58.03;35.67;;;11.80;99.90;;;;;;5034688;28;20390;-76
2021/09/09 02:49:58;;;;;;;58.88;34.20;;;11.80;99.90;;;;;;5034355;28;20036;-77
2021/09/09 02:52:23;;;;;;;66.65;36.13;;;11.80;99.90;;;;;;5034321;28;20077;-77
2021/09/09 02:54:49;;;;;;;57.22;34.70;;;11.90;99.90;;;;;;5033465;28;20018;-77
2021/09/09 02:57:15;;;;;;;53.30;33.80;;;11.90;99.90;;;;;;5033029;28;20033;-76
2021/09/09 02:59:40;;;;;;;51.17;32.78;;;11.90;99.90;;;;;;5034138;28;20501;-76
2021/09/09 03:02:06;;;;;;;49.15;30.80;;;11.90;99.90;;;;;;5034121;28;20056;-76
2021/09/09 03:04:31;;;;;;;55.65;33.30;;;11.90;99.90;;;;;;5033817;28;20393;-76
2021/09/09 03:06:57;;;;;;;46.63;29.20;;;11.90;99.90;;;;;;5033712;28;20036;-76
2021/09/09 03:09:23;;;;;;;44.80;29.58;;;11.80;99.90;;;;;;5034037;28;20045;-77
2021/09/09 03:11:48;;;;;;;48.60;30.65;;;11.80;99.90;;;;;;5033988;28;20021;-76
2021/09/09 03:14:14;;;;;;;44.13;30.55;;;11.80;99.90;;;;;;5033689;28;20060;-77
2021/09/09 03:16:40;;;;;;;52.55;31.13;;;11.80;99.90;;;;;;5032269;28;20034;-76
2021/09/09 03:19:06;;;;;;;50.83;30.40;;;11.80;99.90;;;;;;5033886;28;20041;-77
2021/09/09 03:21:31;;;;;;;49.28;29.40;;;11.80;99.90;;;;;;5033197;28;20043;-77
2021/09/09 03:23:57;;;;;;;48.75;30.13;;;11.80;99.90;;;;;;5033365;28;20033;-77
2021/09/09 03:26:22;;;;;;;43.45;28.55;;;11.70;99.90;;;;;;5032384;28;20624;-77
2021/09/09 03:28:48;;;;;;;42.70;27.77;;;11.70;99.90;;;;;;5032386;28;20022;-77
2021/09/09 03:31:13;;;;;;;41.50;26.88;;;11.70;99.90;;;;;;5033391;28;20040;-77
2021/09/09 03:33:39;;;;;;;41.42;26.88;;;11.70;99.90;;;;;;5033494;28;20075;-77
2021/09/09 03:36:05;;;;;;;44.35;27.67;;;11.70;99.90;;;;;;5032113;28;20033;-77
2021/09/09 03:38:30;;;;;;;50.28;28.85;;;11.60;99.90;;;;;;5033492;28;20032;-77
2021/09/09 03:40:56;;;;;;;47.33;29.85;;;11.60;99.90;;;;;;5033156;28;20045;-77
2021/09/09 03:43:22;;;;;;;43.85;28.52;;;11.50;99.90;;;;;;5032206;28;20025;-77
2021/09/09 03:45:47;;;;;;;39.20;26.98;;;11.50;99.90;;;;;;5031876;28;20021;-77
2021/09/09 03:48:13;;;;;;;45.67;27.30;;;11.40;99.90;;;;;;5032100;28;20094;-77
2021/09/09 03:50:38;;;;;;;39.80;25.48;;;11.40;99.90;;;;;;5033194;28;20034;-76
2021/09/09 03:53:04;;;;;;;38.70;25.13;;;11.30;99.90;;;;;;5032946;28;20100;-77
2021/09/09 03:55:30;;;;;;;41.00;27.10;;;11.30;99.90;;;;;;5031625;28;20501;-76
2021/09/09 03:57:55;;;;;;;41.88;28.35;;;11.30;99.90;;;;;;5031855;28;20486;-77
2021/09/09 04:00:21;;;;;;;57.10;30.55;;;11.20;99.90;;;;;;5033092;28;20027;-77
2021/09/09 04:02:46;;;;;;;52.35;32.03;;;11.20;99.90;;;;;;5031199;28;20072;-77
2021/09/09 04:05:12;;;;;;;52.75;30.75;;;11.20;99.90;;;;;;5031341;28;20033;-77
2021/09/09 04:07:38;;;;;;;46.03;29.45;;;11.20;99.90;;;;;;5031744;28;20025;-77
2021/09/09 04:10:04;;;;;;;47.35;30.40;;;11.20;99.90;;;;;;5031677;28;20022;-77
2021/09/09 04:12:30;;;;;;;48.55;30.77;;;11.20;99.90;;;;;;5032563;28;20036;-77
2021/09/09 04:14:56;;;;;;;51.28;31.33;;;11.10;99.90;;;;;;5032518;28;20474;-77
2021/09/09 04:17:21;;;;;;;46.63;31.50;;;11.10;99.90;;;;;;5032807;28;20056;-77
2021/09/09 04:19:47;;;;;;;59.85;36.78;;;11.10;99.90;;;;;;5032661;28;20117;-76
2021/09/09 04:22:12;;;;;;;53.85;34.28;;;11.10;99.90;;;;;;5031109;28;20120;-77
2021/09/09 04:24:38;;;;;;;55.58;36.70;;;11.20;99.90;;;;;;5032434;28;20033;-77
2021/09/09 04:27:04;;;;;;;54.08;33.60;;;11.20;99.90;;;;;;5031206;28;20021;-77
2021/09/09 04:29:30;;;;;;;55.53;32.92;;;11.20;99.90;;;;;;5032807;28;20044;-76
2021/09/09 04:31:56;;;;;;;47.90;32.13;;;11.20;99.90;;;;;;5032517;28;20029;-77
2021/09/09 04:34:21;;;;;;;46.53;31.65;;;11.20;99.90;;;;;;5031942;28;20029;-77
2021/09/09 04:36:47;;;;;;;56.53;36.85;;;11.20;99.90;;;;;;5032317;28;20028;-78
2021/09/09 04:39:13;;;;;;;57.58;35.45;;;11.20;99.90;;;;;;5031169;28;20026;-77
2021/09/09 04:41:38;;;;;;;53.53;33.75;;;11.20;99.90;;;;;;5032179;28;20029;-77
2021/09/09 04:44:05;;;;;;;51.80;33.53;;;11.20;99.90;;;;;;5031764;28;20136;-77
2021/09/09 04:46:31;;;;;;;52.90;32.05;;;11.20;99.90;;;;;;5030922;28;20108;-77
2021/09/09 04:48:57;;;;;;;45.75;30.27;;;11.20;99.90;;;;;;5031166;28;20044;-77
2021/09/09 04:51:23;;;;;;;54.10;34.47;;;11.20;99.90;;;;;;5032203;28;20041;-77
2021/09/09 04:53:49;;;;;;;59.33;34.55;;;11.20;99.90;;;;;;5031278;28;20025;-77
2021/09/09 04:56:14;;;;;;;51.97;33.50;;;11.20;99.90;;;;;;5031934;28;20025;-77
2021/09/09 04:58:40;;;;;;;47.15;32.05;;;11.10;99.90;;;;;;5030861;28;20025;-77
2021/09/09 05:01:06;;;;;;;52.38;33.20;;;11.10;99.90;;;;;;5032007;28;20425;-77
2021/09/09 05:03:32;;;;;;;50.05;30.50;;;11.10;99.90;;;;;;5030507;28;20022;-77
2021/09/09 05:05:57;;;;;;;46.88;30.67;;;11.10;99.90;;;;;;5030301;28;20041;-77
2021/09/09 05:08:23;;;;;;;53.15;34.22;;;11.10;99.90;;;;;;5031927;28;20033;-77
2021/09/09 05:10:49;;;;;;;50.30;32.55;;;11.10;99.90;;;;;;5016020;28;20532;-77
2021/09/09 05:13:14;;;;;;;54.47;33.17;;;11.10;99.90;;;;;;5014212;28;20030;-77
2021/09/09 05:15:40;;;;;;;57.70;36.92;;;11.10;99.90;;;;;;5030286;28;20025;-77
2021/09/09 05:18:05;;;;;;;60.17;35.78;;;11.20;99.90;;;;;;5030576;28;20017;-77
2021/09/09 05:20:31;;;;;;;61.08;36.97;;;11.20;99.90;;;;;;5030202;28;20033;-77
2021/09/09 05:22:57;;;;;;;56.60;32.50;;;11.30;99.90;;;;;;5031854;28;20436;-77
2021/09/09 05:25:22;;;;;;;65.85;39.60;;;11.20;99.90;;;;;;5031470;28;20026;-77
2021/09/09 05:27:48;;;;;;;54.92;34.95;;;11.30;99.90;;;;;;5031635;28;20119;-77
2021/09/09 05:30:14;;;;;;;68.70;40.17;;;11.40;99.90;;;;;;5030992;28;20033;-77
2021/09/09 05:32:40;;;;;;;62.92;36.28;;;11.60;99.90;;;;;;5031619;28;20113;-77
2021/09/09 05:35:07;;;;;;;52.95;35.95;;;11.70;99.90;;;;;;5030134;28;20121;-77
2021/09/09 05:37:32;;;;;;;57.65;35.20;;;11.70;99.90;;;;;;5030412;28;20029;-77
2021/09/09 05:39:58;;;;;;;59.95;35.40;;;11.80;99.90;;;;;;5031314;28;20035;-77
2021/09/09 05:42:24;;;;;;;70.28;41.20;;;11.90;99.90;;;;;;5013772;28;20358;-77
2021/09/09 05:44:51;;;;;;;56.13;35.47;;;12.00;99.90;;;;;;5031315;28;20021;-78
2021/09/09 05:47:17;;;;;;;59.88;36.00;;;12.00;99.90;;;;;;5030327;28;20021;-78
2021/09/09 05:49:42;;;;;;;60.38;35.78;;;12.20;99.90;;;;;;5030278;28;20040;-77
2021/09/09 05:52:08;;;;;;;67.55;38.17;;;12.30;99.90;;;;;;5030064;28;20116;-77
2021/09/09 05:54:34;;;;;;;63.17;37.50;;;12.40;99.90;;;;;;5031177;28;20125;-77
2021/09/09 05:57:01;;;;;;;60.60;35.67;;;12.50;99.90;;;;;;5030127;28;20034;-77
2021/09/09 05:59:27;;;;;;;63.45;39.65;;;12.60;99.90;;;;;;5031506;28;20029;-77
2021/09/09 06:01:53;;;;;;;66.85;37.60;;;12.70;99.90;;;;;;5029272;28;20468;-77
2021/09/09 06:04:20;;;;;;;73.20;43.45;;;12.90;99.90;;;;;;5030895;28;20037;-77
2021/09/09 06:06:46;;;;;;;77.88;43.75;;;12.90;99.90;;;;;;5032736;28;20383;-77
2021/09/09 06:09:12;;;;;;;61.65;38.78;;;13.10;99.90;;;;;;5034991;28;20028;-78
2021/09/09 06:11:37;;;;;;;74.70;45.50;;;13.20;99.90;;;;;;5034774;28;20037;-77
2021/09/09 06:14:04;;;;;;;78.63;45.15;;;13.30;99.90;;;;;;5034667;28;20885;-78
2021/09/09 06:16:30;;;;;;;77.97;47.90;;;13.50;99.90;;;;;;5033303;28;20029;-77
2021/09/09 06:18:56;;;;;;;72.38;46.85;;;13.60;99.90;;;;;;5017145;28;20061;-77
2021/09/09 06:21:22;;;;;;;83.85;48.15;;;13.80;99.90;;;;;;5034758;28;20032;-78
2021/09/09 06:23:48;;;;;;;71.13;43.83;;;13.90;99.90;;;;;;5034378;28;20022;-78
2021/09/09 06:26:13;;;;;;;76.15;47.35;;;14.10;99.90;;;;;;5034476;28;20104;-78
2021/09/09 06:28:39;;;;;;;72.03;44.13;;;14.20;99.90;;;;;;5034673;28;20022;-78
2021/09/09 06:31:05;;;;;;;76.15;47.08;;;14.30;99.90;;;;;;5033395;28;20033;-78
2021/09/09 06:33:31;;;;;;;68.13;41.72;;;14.50;99.90;;;;;;5033286;28;20512;-78
2021/09/09 06:35:57;;;;;;;73.85;45.65;;;14.60;99.90;;;;;;5034405;28;20048;-78
2021/09/09 06:38:22;;;;;;;75.10;44.20;;;14.80;99.90;;;;;;5034157;28;20539;-78
2021/09/09 06:40:48;;;;;;;66.43;41.38;;;15.00;99.90;;;;;;5033123;28;20497;-78
2021/09/09 06:43:13;;;;;;;74.28;47.20;;;15.20;99.90;;;;;;5033170;28;20022;-78
2021/09/09 06:45:39;;;;;;;64.82;42.20;;;15.30;99.90;;;;;;5016428;28;20065;-78
2021/09/09 06:48:05;;;;;;;61.47;42.30;;;15.50;99.90;;;;;;5033967;28;20099;-77
2021/09/09 06:50:30;;;;;;;61.92;39.30;;;15.70;99.90;;;;;;5033662;28;20018;-78
2021/09/09 06:52:56;;;;;;;60.38;38.72;;;15.80;99.90;;;;;;5032843;28;20489;-78
2021/09/09 06:55:21;;;;;;;69.47;44.40;;;16.10;99.90;;;;;;5033902;28;20025;-78
2021/09/09 06:57:47;;;;;;;71.07;44.65;;;16.20;99.90;;;;;;5033999;28;20027;-78
2021/09/09 07:00:13;;;;;;;64.53;43.10;;;16.40;99.90;;;;;;5034059;28;20040;-79
2021/09/09 07:02:39;;;;;;;76.20;48.45;;;16.60;99.90;;;;;;5032848;28;20025;-79
2021/09/09 07:05:05;;;;;;;69.75;47.28;;;16.70;99.90;;;;;;5032428;28;20526;-78
2021/09/09 07:07:30;;;;;;;56.25;39.55;;;16.90;99.90;;;;;;5033761;28;20112;-78
2021/09/09 07:09:56;;;;;;;61.50;39.95;;;17.00;99.90;;;;;;5012837;28;20109;-78
2021/09/09 07:12:22;;;;;;;65.05;40.70;;;17.30;99.90;;;;;;5014244;28;20072;-80
2021/09/09 07:14:47;;;;;;;57.53;39.55;;;17.40;99.90;;;;;;4996180;28;20026;-79
2021/09/09 07:17:13;;;;;;;52.95;38.53;;;17.50;99.90;;;;;;5013902;28;20038;-80
2021/09/09 07:19:38;;;;;;;48.05;33.58;;;17.70;99.90;;;;;;5011110;28;20115;-78
2021/09/09 07:22:04;;;;;;;47.65;33.65;;;18.00;99.90;;;;;;5015957;28;20025;-78
2021/09/09 07:24:29;;;;;;;43.80;33.08;;;18.20;99.90;;;;;;5033470;28;20022;-79
2021/09/09 07:26:55;;;;;;;39.53;27.65;;;18.40;99.90;;;;;;5032352;28;20116;-79
2021/09/09 07:29:21;;;;;;;36.20;25.65;;;18.50;99.90;;;;;;5033341;28;20430;-82
2021/09/09 07:31:47;;;;;;;39.85;27.63;;;18.80;99.90;;;;;;5033612;28;20068;-80
2021/09/09 07:34:13;;;;;;;41.92;25.58;;;19.00;99.90;;;;;;5033352;28;20036;-80
2021/09/09 07:36:39;;;;;;;35.85;24.30;;;19.10;99.90;;;;;;5025225;28;20021;-78
2021/09/09 07:39:05;;;;;;;35.65;26.38;;;19.30;99.90;;;;;;5030506;28;20502;-78
2021/09/09 07:41:32;;;;;;;40.92;26.67;;;19.50;99.90;;;;;;5033198;28;20049;-78
2021/09/09 07:43:57;;;;;;;34.13;23.40;;;19.80;99.90;;;;;;5031844;28;20158;-78
2021/09/09 07:46:23;;;;;;;40.22;23.92;;;19.90;99.90;;;;;;5031868;28;20026;-77
2021/09/09 07:48:50;;;;;;;34.53;23.38;;;20.00;99.90;;;;;;5033119;28;20024;-77
2021/09/09 07:51:18;;;;;;;28.92;21.67;;;20.10;99.90;;;;;;5012147;28;20068;-78
2021/09/09 07:53:45;;;;;;;33.10;21.38;;;20.40;99.90;;;;;;5011871;28;20030;-77
2021/09/09 07:56:11;;;;;;;26.95;21.00;;;20.50;99.90;;;;;;4995796;28;20029;-78
2021/09/09 07:58:36;;;;;;;34.13;22.50;;;20.70;99.90;;;;;;4995597;28;20052;-77
2021/09/09 08:01:02;;;;;;;29.38;21.13;;;20.80;99.90;;;;;;5010790;28;20481;-77
2021/09/09 08:03:28;;;;;;;33.63;22.50;;;20.80;99.90;;;;;;5033281;28;20033;-78
2021/09/09 08:05:54;;;;;;;30.55;20.17;;;21.20;99.90;;;;;;5014791;28;20119;-78
2021/09/09 08:08:19;;;;;;;28.77;20.38;;;21.20;99.90;;;;;;5032950;28;20028;-77
2021/09/09 08:10:45;;;;;;;28.65;19.48;;;21.50;99.90;;;;;;5032644;28;20022;-77
2021/09/09 08:13:10;;;;;;;29.20;20.42;;;21.70;99.90;;;;;;5032728;28;20057;-78
2021/09/09 08:15:37;;;;;;;29.17;20.48;;;21.90;99.90;;;;;;5014736;28;20402;-79
2021/09/09 08:18:03;;;;;;;29.33;19.88;;;22.00;99.90;;;;;;5032695;28;20013;-78
2021/09/09 08:20:29;;;;;;;28.48;19.60;;;22.10;99.90;;;;;;5032265;28;20470;-78
2021/09/09 08:22:54;;;;;;;27.10;19.33;;;22.30;99.90;;;;;;5032225;28;20036;-78
2021/09/09 08:25:20;;;;;;;26.55;19.88;;;22.60;99.90;;;;;;5031892;28;20025;-78
2021/09/09 08:27:45;;;;;;;32.17;18.30;;;22.70;99.90;;;;;;5032536;28;20017;-77
2021/09/09 08:30:11;;;;;;;23.58;17.23;;;22.90;99.90;;;;;;5031835;28;20029;-77
2021/09/09 08:32:37;;;;;;;30.25;19.77;;;22.90;99.90;;;;;;5030058;28;20379;-78
2021/09/09 08:35:03;;;;;;;26.13;17.98;;;23.10;99.90;;;;;;5029354;28;20045;-78
2021/09/09 08:37:28;;;;;;;21.02;15.57;;;23.30;99.90;;;;;;5031666;28;20025;-78
2021/09/09 08:39:54;;;;;;;24.75;15.60;;;23.40;99.90;;;;;;5030021;28;20577;-78
2021/09/09 08:42:20;;;;;;;41.10;15.80;;;23.60;99.90;;;;;;5027897;28;20485;-77
2021/09/09 08:44:47;;;;;;;28.60;15.20;;;23.80;99.90;;;;;;5027416;28;20405;-80
2021/09/09 08:47:15;;;;;;;23.15;15.55;;;23.90;99.90;;;;;;5027450;28;20036;-78
2021/09/09 08:49:41;;;;;;;20.50;15.13;;;24.10;99.90;;;;;;5027832;28;20022;-78
2021/09/09 08:52:07;;;;;;;23.90;13.90;;;24.20;99.90;;;;;;5024926;28;20040;-78
2021/09/09 08:54:33;;;;;;;24.52;15.35;;;24.30;99.90;;;;;;5027715;28;20028;-78
2021/09/09 08:56:58;;;;;;;22.65;13.88;;;24.40;99.90;;;;;;5036930;28;20056;-78
2021/09/09 08:59:25;;;;;;;18.55;13.88;;;24.60;99.90;;;;;;5030233;28;20110;-77
2021/09/09 09:02:06;;;;;;;21.35;14.60;;;24.80;99.90;;;;;;5027626;28;20036;-78
2021/09/09 09:04:33;;;;;;;27.75;15.02;;;25.00;99.90;;;;;;5035366;28;20033;-79
2021/09/09 09:07:00;;;;;;;25.35;14.25;;;25.10;99.90;;;;;;5027247;28;20076;-80
2021/09/09 09:09:28;;;;;;;25.45;12.35;;;25.20;99.90;;;;;;5028540;28;20078;-80
2021/09/09 09:11:54;;;;;;;17.60;13.63;;;25.40;99.90;;;;;;5027957;28;20055;-79
2021/09/09 09:14:21;;;;;;;18.40;12.35;;;25.30;99.90;;;;;;5025426;28;20021;-78
2021/09/09 09:16:54;;;;;;;17.15;13.10;;;25.40;99.90;;;;;;5031122;28;20493;-78
2021/09/09 09:19:35;;;;;;;20.67;12.30;;;25.60;99.90;;;;;;5031460;28;20029;-80
2021/09/09 09:22:12;;;;;;;19.40;12.82;;;25.80;99.90;;;;;;5030484;28;20047;-82
2021/09/09 09:24:46;;;;;;;18.17;12.25;;;25.80;99.90;;;;;;5030349;28;20120;-82
2021/09/09 09:27:15;;;;;;;19.98;12.73;;;26.00;99.90;;;;;;5031509;28;20095;-82
2021/09/09 09:29:56;;;;;;;14.88;11.70;;;26.10;99.90;;;;;;5030209;28;20102;-82
2021/09/09 09:32:22;;;;;;;18.20;12.00;;;26.20;99.90;;;;;;5030504;28;20022;-82
2021/09/09 09:34:47;;;;;;;25.50;12.48;;;26.50;99.90;;;;;;5031241;28;20105;-83
2021/09/09 09:37:22;;;;;;;21.27;11.65;;;26.50;99.90;;;;;;5031673;28;20065;-83
2021/09/09 09:39:49;;;;;;;13.73;10.27;;;26.50;99.90;;;;;;5030244;28;20029;-84
2021/09/09 09:42:14;;;;;;;17.70;11.25;;;26.50;99.90;;;;;;5035535;28;20064;-83
2021/09/09 09:44:41;;;;;;;15.63;10.48;;;26.90;99.90;;;;;;5035288;28;20053;-85
2021/09/09 09:47:19;;;;;;;19.67;10.52;;;26.90;99.90;;;;;;5035457;28;20451;-85
2021/09/09 09:49:48;;;;;;;17.38;10.43;;;27.20;99.90;;;;;;5034357;28;20073;-85
2021/09/09 09:52:25;;;;;;;14.65;10.45;;;27.40;99.90;;;;;;5033964;28;20489;-85
2021/09/09 09:54:53;;;;;;;19.95;11.07;;;27.40;99.90;;;;;;5035204;28;20025;-87
2021/09/09 09:57:19;;;;;;;14.50;9.48;;;27.50;99.90;;;;;;5035402;28;20025;-85
2021/09/09 09:59:45;;;;;;;16.17;9.82;;;27.60;99.90;;;;;;5033715;28;20022;-85
2021/09/09 10:02:11;;;;;;;15.20;9.90;;;27.70;99.90;;;;;;5033386;28;20083;-84
2021/09/09 10:04:44;;;;;;;16.75;10.68;;;27.70;99.90;;;;;;5017057;28;20089;-84
2021/09/09 10:07:11;;;;;;;14.60;9.95;;;27.90;99.90;;;;;;5035326;28;20105;-85
2021/09/09 10:09:38;;;;;;;18.08;10.85;;;28.00;99.90;;;;;;5033391;28;20057;-85
2021/09/09 10:12:08;;;;;;;18.25;10.38;;;28.10;99.90;;;;;;5035072;28;20021;-85
2021/09/09 10:14:35;;;;;;;16.70;9.00;;;28.30;99.90;;;;;;5034931;28;20525;-84
2021/09/09 10:17:01;;;;;;;14.50;8.45;;;28.40;99.90;;;;;;5034841;28;20475;-85
2021/09/09 10:19:32;;;;;;;16.10;8.25;;;28.60;99.90;;;;;;5034844;28;20017;-85
2021/09/09 10:22:11;;;;;;;10.80;8.65;;;28.70;99.90;;;;;;5034795;28;20068;-85
2021/09/09 10:24:38;;;;;;;14.05;8.93;;;28.70;99.90;;;;;;5033415;28;20032;-85
2021/09/09 10:27:27;;;;;;;15.48;7.97;;;28.50;99.90;;;;;;5033479;28;20029;-84
2021/09/09 10:30:05;;;;;;;14.48;8.10;;;28.60;99.90;;;;;;5034550;28;20017;-84
2021/09/09 10:32:37;;;;;;;13.23;7.97;;;28.50;99.90;;;;;;5013798;28;20397;-84
2021/09/09 10:35:15;;;;;;;15.48;8.15;;;28.70;99.90;;;;;;5013365;28;20021;-85
2021/09/09 10:37:41;;;;;;;14.63;8.10;;;29.00;99.90;;;;;;5014782;28;20025;-83
2021/09/09 10:40:08;;;;;;;16.48;8.38;;;29.10;99.90;;;;;;5014635;28;20037;-84
2021/09/09 10:42:40;;;;;;;14.82;9.38;;;29.10;99.90;;;;;;5034021;28;20537;-87
2021/09/09 10:45:32;;;;;;;11.90;7.78;;;28.90;99.90;;;;;;5033029;28;20029;-88
2021/09/09 10:47:57;;;;;;;16.45;9.00;;;28.90;99.90;;;;;;5034143;28;20100;-85
2021/09/09 10:50:24;;;;;;;15.55;8.38;;;29.00;99.90;;;;;;5016547;28;20120;-85
2021/09/09 10:53:00;;;;;;;14.77;9.18;;;29.20;99.90;;;;;;5033171;28;20037;-85
2021/09/09 10:55:27;;;;;;;13.23;7.43;;;29.40;99.90;;;;;;5034048;28;20162;-86
2021/09/09 10:58:15;;;;;;;10.40;8.10;;;29.40;99.90;;;;;;5034188;28;20022;-88
2021/09/09 11:01:05;;;;;;;21.88;8.65;;;29.60;99.90;;;;;;5034307;28;20633;-85
2021/09/09 11:03:50;;;;;;;11.93;8.25;;;29.30;99.90;;;;;;5014462;28;20034;-82
2021/09/09 11:06:21;;;;;;;14.68;7.43;;;29.10;99.90;;;;;;5014425;28;20120;-83
2021/09/09 11:08:49;;;;;;;13.25;8.15;;;29.10;99.90;;;;;;5012972;28;20026;-84
2021/09/09 11:11:27;;;;;;;9.68;7.72;;;29.10;99.90;;;;;;4996643;28;20057;-86
2021/09/09 11:14:00;;;;;;;14.35;8.60;;;29.30;99.90;;;;;;5014149;28;20025;-86
2021/09/09 11:16:29;;;;;;;10.57;8.43;;;29.40;99.90;;;;;;5014125;28;20029;-84
2021/09/09 11:18:56;;;;;;;14.40;8.00;;;29.40;99.90;;;;;;5014051;28;20029;-85
2021/09/09 11:21:22;;;;;;;13.45;8.27;;;29.40;99.90;;;;;;5014047;28;20072;-86
2021/09/09 11:23:55;;;;;;;17.95;7.97;;;29.30;99.90;;;;;;5031916;28;20028;-84
2021/09/09 11:26:21;;;;;;;14.95;8.60;;;29.10;99.90;;;;;;5032643;28;20052;-84
2021/09/09 11:28:48;;;;;;;12.75;7.38;;;29.30;99.90;;;;;;5032410;28;20061;-84
2021/09/09 11:31:20;;;;;;;11.98;7.40;;;29.10;99.90;;;;;;5033651;28;20449;-87
2021/09/09 11:34:06;;;;;;;13.13;8.23;;;29.50;99.90;;;;;;5033454;28;20398;-86
2021/09/09 11:36:34;;;;;;;17.92;7.85;;;29.60;99.90;;;;;;5032076;28;20041;-84
2021/09/09 11:39:03;;;;;;;14.50;8.05;;;29.90;99.90;;;;;;5033380;28;20509;-84
2021/09/09 11:41:31;;;;;;;22.17;8.02;;;30.10;99.90;;;;;;5033451;28;20037;-85
2021/09/09 11:44:08;;;;;;;14.73;7.35;;;30.20;99.90;;;;;;5031844;28;20030;-88
2021/09/09 11:46:50;;;;;;;12.48;7.78;;;30.30;99.90;;;;;;5032131;28;20025;-84
2021/09/09 11:49:21;;;;;;;10.45;6.65;;;30.60;99.90;;;;;;5033330;28;20060;-87
2021/09/09 11:51:47;;;;;;;19.05;7.50;;;30.90;99.90;;;;;;5032101;28;20124;-85
2021/09/09 11:54:17;;;;;;;10.15;6.75;;;31.00;99.90;;;;;;5014900;28;20109;-86
2021/09/09 11:56:44;;;;;;;9.05;6.57;;;31.20;99.90;;;;;;5031909;28;20039;-86
2021/09/09 11:59:12;;;;;;;16.30;6.82;;;31.70;99.90;;;;;;5032962;28;20025;-85
2021/09/09 12:01:39;;;;;;;15.88;7.25;;;31.60;99.90;;;;;;5032922;28;20024;-85
2021/09/09 12:04:05;;;;;;;12.25;6.75;;;32.00;99.90;;;;;;5030271;28;20490;-85
2021/09/09 12:06:32;;;;;;;13.77;7.32;;;32.50;99.90;;;;;;5031747;28;20034;-85
2021/09/09 12:08:58;;;;;;;9.73;6.50;;;32.80;99.90;;;;;;5032880;28;20028;-83
2021/09/09 12:11:24;;;;;;;13.30;7.00;;;32.80;99.90;;;;;;5031526;28;20124;-85
2021/09/09 12:13:50;;;;;;;10.13;6.57;;;32.70;99.20;;;;;;5031033;28;20130;-83
2021/09/09 12:16:21;;;;;;;11.77;6.72;;;33.10;98.90;;;;;;5015252;28;20116;-85
2021/09/09 12:18:48;;;;;;;9.50;6.30;;;33.20;97.40;;;;;;5031544;28;20060;-83
2021/09/09 12:21:22;;;;;;;12.23;6.72;;;33.10;96.60;;;;;;5032787;28;20036;-87
2021/09/09 12:24:04;;;;;;;10.35;6.03;;;33.50;97.30;;;;;;5030797;28;20535;-81
2021/09/09 12:26:32;;;;;;;9.13;6.32;;;33.40;96.70;;;;;;5031285;28;20040;-84
2021/09/09 12:28:57;;;;;;;9.43;6.60;;;33.80;95.40;;;;;;5032590;28;20022;-86